Time;durP1;ratioP1;P1;durP2;ratioP2;P2;SDS_P1;SDS_P2;PMS_P1;PMS_P2;Temp;Humidity;BMP_temperature;BMP_pressure;BME280_temperature;BME280_humidity;BME280_pressure;Samples;Min_cycle;Max_cycle;Signal;HPM_P1;HPM_P2
2022/02/16 00:01:29;;;;;;;3.60;3.10;;;;;;;;;;5045512;28;20429;-81
2022/02/16 00:03:55;;;;;;;4.17;3.20;;;;;;;;;;5046036;28;20540;-81
2022/02/16 00:06:21;;;;;;;4.03;3.20;;;;;;;;;;5046064;28;20437;-81
2022/02/16 00:08:47;;;;;;;3.90;3.03;;;;;;;;;;5046522;28;20434;-81
2022/02/16 00:11:13;;;;;;;2.53;2.30;;;;;;;;;;5047956;28;20778;-82
2022/02/16 00:13:40;;;;;;;3.93;2.63;;;;;;;;;;5046999;28;20410;-81
2022/02/16 00:16:08;;;;;;;5.00;2.87;;;;;;;;;;5048113;28;20418;-81
2022/02/16 00:18:38;;;;;;;4.47;3.10;;;;;;;;;;5047536;28;20981;-81
2022/02/16 00:21:04;;;;;;;7.70;2.63;;;;;;;;;;5046143;28;20513;-81
2022/02/16 00:23:31;;;;;;;4.20;2.73;;;;;;;;;;5048236;28;20418;-81
2022/02/16 00:25:59;;;;;;;3.20;2.63;;;;;;;;;;5046995;28;20402;-81
2022/02/16 00:28:25;;;;;;;4.63;2.70;;;;;;;;;;5046919;28;20829;-81
2022/02/16 00:30:52;;;;;;;4.33;2.03;;;;;;;;;;5047564;28;20398;-80
2022/02/16 00:33:18;;;;;;;3.70;2.37;;;;;;;;;;5048891;28;20411;-81
2022/02/16 00:35:44;;;;;;;3.30;2.30;;;;;;;;;;5056716;28;20410;-81
2022/02/16 00:38:10;;;;;;;2.90;1.83;;;;;;;;;;5051773;28;20422;-81
2022/02/16 00:40:36;;;;;;;2.43;2.03;;;;;;;;;;5047323;28;20802;-81
2022/02/16 00:43:02;;;;;;;2.83;2.03;;;;;;;;;;5052809;28;20743;-80
2022/02/16 00:45:31;;;;;;;4.50;2.70;;;;;;;;;;5049529;28;20477;-81
2022/02/16 00:47:57;;;;;;;2.10;1.80;;;;;;;;;;5048063;28;20407;-81
2022/02/16 00:50:23;;;;;;;3.27;2.03;;;;;;;;;;5048553;28;20414;-81
2022/02/16 00:52:49;;;;;;;2.50;1.87;;;;;;;;;;5047757;28;20409;-81
2022/02/16 00:55:15;;;;;;;2.47;1.37;;;;;;;;;;5048452;28;20477;-81
2022/02/16 00:57:41;;;;;;;6.37;2.50;;;;;;;;;;5047917;28;20436;-81
2022/02/16 01:00:07;;;;;;;5.50;1.70;;;;;;;;;;5045889;28;20510;-81
2022/02/16 01:02:33;;;;;;;1.80;1.40;;;;;;;;;;5049483;28;20399;-81
2022/02/16 01:04:59;;;;;;;1.80;1.50;;;;;;;;;;5045094;28;20454;-81
2022/02/16 01:07:25;;;;;;;1.90;1.37;;;;;;;;;;5044810;28;20505;-81
2022/02/16 01:09:51;;;;;;;2.10;1.33;;;;;;;;;;5045470;28;20492;-80
2022/02/16 01:12:18;;;;;;;1.80;1.50;;;;;;;;;;5048612;28;20477;-81
2022/02/16 01:14:44;;;;;;;1.93;1.40;;;;;;;;;;5046601;28;20422;-81
2022/02/16 01:17:10;;;;;;;2.80;1.27;;;;;;;;;;5046429;28;20403;-81
2022/02/16 01:19:36;;;;;;;1.80;1.33;;;;;;;;;;5045791;28;20430;-81
2022/02/16 01:22:02;;;;;;;2.50;1.33;;;;;;;;;;5047248;28;20418;-81
2022/02/16 01:24:29;;;;;;;1.60;1.37;;;;;;;;;;5046541;28;20469;-81
2022/02/16 01:26:55;;;;;;;1.80;1.30;;;;;;;;;;5047835;28;20418;-81
2022/02/16 01:29:23;;;;;;;3.60;1.63;;;;;;;;;;5046582;28;20430;-81
2022/02/16 01:31:49;;;;;;;2.80;1.40;;;;;;;;;;5046963;28;20402;-81
2022/02/16 01:34:15;;;;;;;1.77;1.00;;;;;;;;;;5046443;28;20761;-81
2022/02/16 01:36:42;;;;;;;2.23;1.40;;;;;;;;;;5047057;28;20415;-81
2022/02/16 01:39:08;;;;;;;1.80;1.20;;;;;;;;;;5046635;28;20441;-81
2022/02/16 01:41:35;;;;;;;2.63;1.10;;;;;;;;;;5046376;28;20855;-81
2022/02/16 01:44:01;;;;;;;1.80;1.27;;;;;;;;;;5048603;28;20442;-81
2022/02/16 01:46:27;;;;;;;1.53;1.10;;;;;;;;;;5057425;28;20403;-80
2022/02/16 01:48:53;;;;;;;2.10;1.27;;;;;;;;;;5056920;28;20438;-81
2022/02/16 01:51:20;;;;;;;2.03;1.20;;;;;;;;;;5057243;28;20441;-81
2022/02/16 01:53:46;;;;;;;3.27;1.47;;;;;;;;;;5049654;28;20458;-81
2022/02/16 01:56:12;;;;;;;1.80;1.10;;;;;;;;;;5045615;28;20413;-81
2022/02/16 01:58:39;;;;;;;1.70;1.20;;;;;;;;;;5046322;28;20796;-81
2022/02/16 02:01:06;;;;;;;2.00;1.23;;;;;;;;;;5045551;28;20449;-82
2022/02/16 02:03:32;;;;;;;3.00;1.60;;;;;;;;;;5046067;28;20407;-81
2022/02/16 02:05:58;;;;;;;2.77;1.40;;;;;;;;;;5046321;28;20915;-81
2022/02/16 02:08:25;;;;;;;2.00;1.30;;;;;;;;;;5043842;28;20525;-81
2022/02/16 02:10:52;;;;;;;3.20;1.70;;;;;;;;;;5042705;28;20833;-81
2022/02/16 02:13:19;;;;;;;1.87;1.20;;;;;;;;;;5043933;28;20850;-81
2022/02/16 02:15:45;;;;;;;1.83;1.30;;;;;;;;;;5044580;28;20438;-81
2022/02/16 02:18:15;;;;;;;2.10;1.50;;;;;;;;;;5042226;28;20434;-81
2022/02/16 02:20:42;;;;;;;3.90;1.80;;;;;;;;;;5043915;28;20448;-81
2022/02/16 02:23:08;;;;;;;2.47;1.67;;;;;;;;;;5043893;28;20413;-81
2022/02/16 02:25:44;;;;;;;3.50;1.83;;;;;;;;;;5045480;28;20457;-81
2022/02/16 02:28:11;;;;;;;2.40;1.80;;;;;;;;;;5052626;28;20465;-81
2022/02/16 02:30:37;;;;;;;4.00;2.07;;;;;;;;;;5047491;28;20411;-81
2022/02/16 02:33:03;;;;;;;2.43;1.87;;;;;;;;;;5043390;28;20410;-81
2022/02/16 02:35:29;;;;;;;2.13;1.70;;;;;;;;;;5043105;28;20860;-81
2022/02/16 02:37:55;;;;;;;3.60;2.23;;;;;;;;;;5044679;28;20402;-81
2022/02/16 02:40:21;;;;;;;2.40;2.03;;;;;;;;;;5043278;28;20410;-81
2022/02/16 02:42:47;;;;;;;3.27;1.97;;;;;;;;;;5044582;28;20438;-81
2022/02/16 02:45:14;;;;;;;2.67;1.90;;;;;;;;;;5044793;28;20458;-81
2022/02/16 02:47:41;;;;;;;2.37;1.67;;;;;;;;;;5043948;28;20403;-81
2022/02/16 02:50:07;;;;;;;4.03;1.97;;;;;;;;;;5043481;28;20452;-81
2022/02/16 02:52:36;;;;;;;2.90;1.73;;;;;;;;;;5043287;28;20421;-81
2022/02/16 02:55:02;;;;;;;4.07;2.07;;;;;;;;;;5044942;28;20425;-81
2022/02/16 02:57:28;;;;;;;2.90;2.00;;;;;;;;;;5041507;28;20910;-81
2022/02/16 02:59:54;;;;;;;2.20;1.90;;;;;;;;;;5042325;28;20426;-81
2022/02/16 03:02:20;;;;;;;2.23;1.93;;;;;;;;;;5043762;28;20496;-81
2022/02/16 03:04:46;;;;;;;2.20;1.90;;;;;;;;;;5046093;28;20454;-81
2022/02/16 03:07:12;;;;;;;2.80;2.27;;;;;;;;;;5045794;28;20460;-81
2022/02/16 03:09:39;;;;;;;3.17;1.90;;;;;;;;;;5042321;28;20947;-81
2022/02/16 03:12:07;;;;;;;3.40;2.53;;;;;;;;;;5041752;28;20417;-81
2022/02/16 03:14:33;;;;;;;3.37;2.33;;;;;;;;;;5040827;28;20468;-80
2022/02/16 03:16:59;;;;;;;2.00;1.80;;;;;;;;;;5034288;28;20450;-81
2022/02/16 03:19:25;;;;;;;3.10;2.07;;;;;;;;;;5036652;28;20435;-81
2022/02/16 03:21:51;;;;;;;2.70;2.30;;;;;;;;;;5044053;28;20429;-81
2022/02/16 03:24:17;;;;;;;3.90;2.50;;;;;;;;;;5042849;28;20450;-81
2022/02/16 03:26:44;;;;;;;3.57;2.20;;;;;;;;;;5043144;28;20791;-81
2022/02/16 03:29:10;;;;;;;2.87;2.33;;;;;;;;;;5042901;28;20811;-81
2022/02/16 03:31:36;;;;;;;1.90;1.60;;;;;;;;;;5043008;28;20410;-81
2022/02/16 03:34:02;;;;;;;2.53;1.67;;;;;;;;;;5044317;28;20406;-81
2022/02/16 03:36:28;;;;;;;2.40;2.17;;;;;;;;;;5044776;28;20411;-81
2022/02/16 03:38:54;;;;;;;3.37;2.10;;;;;;;;;;5044359;28;20426;-81
2022/02/16 03:41:20;;;;;;;3.80;2.00;;;;;;;;;;5043502;28;20442;-81
2022/02/16 03:43:46;;;;;;;2.40;1.83;;;;;;;;;;5039611;28;20434;-81
2022/02/16 03:46:12;;;;;;;2.43;2.03;;;;;;;;;;5023044;28;20819;-81
2022/02/16 03:51:08;;;;;;;3.17;1.73;;;;;;;;;;5009556;28;20502;-75
2022/02/16 03:53:34;;;;;;;1.97;1.67;;;;;;;;;;5012911;28;20407;-75
2022/02/16 03:56:01;;;;;;;5.80;2.17;;;;;;;;;;5013049;28;20399;-75
2022/02/16 03:58:27;;;;;;;3.27;2.00;;;;;;;;;;5013211;28;20769;-75
2022/02/16 04:00:53;;;;;;;2.40;1.83;;;;;;;;;;5013102;28;20427;-75
2022/02/16 04:03:19;;;;;;;2.50;1.93;;;;;;;;;;5011872;28;20400;-75
2022/02/16 04:05:45;;;;;;;2.10;1.60;;;;;;;;;;5012870;28;20951;-75
2022/02/16 04:08:11;;;;;;;1.90;1.60;;;;;;;;;;5013017;28;20399;-75
2022/02/16 04:10:37;;;;;;;2.03;1.77;;;;;;;;;;5012764;28;20526;-75
2022/02/16 04:13:04;;;;;;;2.10;1.53;;;;;;;;;;5012944;28;20450;-75
2022/02/16 04:15:30;;;;;;;2.53;1.50;;;;;;;;;;5012871;28;20407;-75
2022/02/16 04:17:56;;;;;;;1.93;1.60;;;;;;;;;;5013016;28;20406;-76
2022/02/16 04:20:23;;;;;;;2.53;1.60;;;;;;;;;;5012891;28;20428;-75
2022/02/16 04:22:53;;;;;;;1.80;1.43;;;;;;;;;;5008489;28;20450;-75
2022/02/16 04:25:19;;;;;;;1.70;1.10;;;;;;;;;;4993241;28;20626;-75
2022/02/16 04:27:46;;;;;;;1.77;1.40;;;;;;;;;;4993195;28;20470;-75
2022/02/16 04:30:12;;;;;;;6.27;1.63;;;;;;;;;;4993195;28;20425;-75
2022/02/16 04:32:39;;;;;;;2.67;1.40;;;;;;;;;;4993491;28;20558;-75
2022/02/16 04:35:05;;;;;;;2.97;1.20;;;;;;;;;;4993321;28;20885;-76
2022/02/16 04:37:31;;;;;;;2.00;1.30;;;;;;;;;;4993420;28;20415;-76
2022/02/16 04:39:58;;;;;;;2.10;1.57;;;;;;;;;;4991892;28;20805;-76
2022/02/16 04:42:25;;;;;;;2.10;1.43;;;;;;;;;;4994378;28;20839;-77
2022/02/16 04:44:51;;;;;;;2.00;1.30;;;;;;;;;;4996574;28;20855;-76
2022/02/16 04:47:17;;;;;;;3.00;1.60;;;;;;;;;;4996417;28;20977;-76
2022/02/16 04:49:43;;;;;;;2.17;1.43;;;;;;;;;;4995091;28;20879;-76
2022/02/16 04:52:09;;;;;;;2.03;1.50;;;;;;;;;;4996419;28;20820;-77
2022/02/16 04:54:36;;;;;;;1.70;1.23;;;;;;;;;;4996700;28;20412;-76
2022/02/16 04:57:02;;;;;;;2.07;1.43;;;;;;;;;;4996577;28;20440;-76
2022/02/16 04:59:28;;;;;;;2.03;1.50;;;;;;;;;;4996143;28;20475;-76
2022/02/16 05:01:54;;;;;;;2.50;1.60;;;;;;;;;;4996135;28;20927;-76
2022/02/16 05:04:20;;;;;;;3.40;1.57;;;;;;;;;;4996237;28;20448;-76
2022/02/16 05:06:46;;;;;;;3.07;2.60;;;;;;;;;;4996231;28;20404;-76
2022/02/16 05:09:12;;;;;;;1.87;1.60;;;;;;;;;;4994798;28;20421;-77
2022/02/16 05:11:38;;;;;;;2.70;1.50;;;;;;;;;;4996362;28;20432;-76
2022/02/16 05:14:04;;;;;;;1.77;1.40;;;;;;;;;;4996209;28;20408;-76
2022/02/16 05:16:30;;;;;;;1.83;1.27;;;;;;;;;;4995842;28;20482;-76
2022/02/16 05:18:59;;;;;;;2.37;1.57;;;;;;;;;;4995786;28;20428;-76
2022/02/16 05:21:25;;;;;;;2.50;1.60;;;;;;;;;;4995846;28;20408;-77
2022/02/16 05:23:51;;;;;;;1.87;1.47;;;;;;;;;;4995851;28;20463;-76
2022/02/16 05:26:17;;;;;;;2.67;1.40;;;;;;;;;;4996009;28;20408;-76
2022/02/16 05:28:43;;;;;;;3.00;1.53;;;;;;;;;;4995738;28;20400;-76
2022/02/16 05:31:09;;;;;;;2.30;1.50;;;;;;;;;;4996144;28;20440;-76
2022/02/16 05:33:38;;;;;;;2.67;1.50;;;;;;;;;;4995884;28;20415;-76
2022/02/16 05:36:05;;;;;;;3.77;1.47;;;;;;;;;;4995620;28;20411;-76
2022/02/16 05:38:31;;;;;;;3.07;1.90;;;;;;;;;;4995490;28;20495;-76
2022/02/16 05:40:57;;;;;;;2.30;1.40;;;;;;;;;;4995675;28;20408;-76
2022/02/16 05:43:23;;;;;;;2.17;1.97;;;;;;;;;;4995562;28;20412;-76
2022/02/16 05:45:49;;;;;;;1.80;1.20;;;;;;;;;;4995468;28;20479;-76
2022/02/16 05:48:20;;;;;;;2.20;1.60;;;;;;;;;;4994332;28;20413;-76
2022/02/16 05:50:47;;;;;;;2.10;1.20;;;;;;;;;;4995031;28;20440;-76
2022/02/16 05:53:14;;;;;;;2.93;1.50;;;;;;;;;;4994936;28;20400;-76
2022/02/16 05:55:40;;;;;;;2.83;1.30;;;;;;;;;;4995640;28;20408;-76
2022/02/16 05:58:06;;;;;;;2.23;1.87;;;;;;;;;;4995146;28;20401;-76
2022/02/16 06:00:32;;;;;;;2.67;1.40;;;;;;;;;;4994991;28;20427;-76
2022/02/16 06:02:58;;;;;;;1.60;1.23;;;;;;;;;;4993874;28;20445;-76
2022/02/16 06:05:24;;;;;;;2.90;1.43;;;;;;;;;;4995022;28;20494;-76
2022/02/16 06:07:51;;;;;;;1.47;1.10;;;;;;;;;;4994927;28;20440;-76
2022/02/16 06:10:17;;;;;;;1.93;1.40;;;;;;;;;;4995079;28;20424;-76
2022/02/16 06:12:44;;;;;;;3.33;1.43;;;;;;;;;;4994918;28;20505;-76
2022/02/16 06:15:10;;;;;;;1.90;1.40;;;;;;;;;;4993611;28;20422;-76
2022/02/16 06:17:37;;;;;;;2.83;2.10;;;;;;;;;;4994861;28;20409;-76
2022/02/16 06:20:03;;;;;;;2.70;1.40;;;;;;;;;;4994526;28;20436;-75
2022/02/16 06:22:29;;;;;;;5.60;2.07;;;;;;;;;;4994689;28;20404;-76
2022/02/16 06:24:55;;;;;;;2.30;1.50;;;;;;;;;;4994528;28;20463;-76
2022/02/16 06:27:22;;;;;;;2.00;1.37;;;;;;;;;;4994508;28;20412;-77
2022/02/16 06:29:48;;;;;;;1.77;1.30;;;;;;;;;;4994607;28;20416;-76
2022/02/16 06:32:14;;;;;;;1.90;1.43;;;;;;;;;;4994580;28;20922;-77
2022/02/16 06:34:40;;;;;;;2.17;1.50;;;;;;;;;;4994772;28;20916;-76
2022/02/16 06:37:06;;;;;;;2.20;1.30;;;;;;;;;;4994576;28;20412;-76
2022/02/16 06:39:32;;;;;;;5.23;2.27;;;;;;;;;;4994323;28;20424;-76
2022/02/16 06:41:58;;;;;;;3.03;1.90;;;;;;;;;;4994357;28;20447;-77
2022/02/16 06:44:24;;;;;;;2.67;1.73;;;;;;;;;;4994498;28;20471;-76
2022/02/16 06:46:50;;;;;;;3.67;1.87;;;;;;;;;;4994790;28;20471;-76
2022/02/16 06:49:16;;;;;;;5.40;1.87;;;;;;;;;;4994404;28;20486;-77
2022/02/16 06:51:43;;;;;;;2.53;1.40;;;;;;;;;;4994530;28;20479;-76
2022/02/16 06:54:09;;;;;;;2.37;1.40;;;;;;;;;;4994248;28;20851;-75
2022/02/16 06:56:35;;;;;;;2.47;1.50;;;;;;;;;;5011078;28;20427;-76
2022/02/16 06:59:01;;;;;;;2.63;1.53;;;;;;;;;;5007198;28;20847;-76
2022/02/16 07:01:28;;;;;;;1.90;1.33;;;;;;;;;;5011572;28;20415;-76
2022/02/16 07:03:54;;;;;;;2.30;1.40;;;;;;;;;;5011156;28;20470;-76
2022/02/16 07:06:20;;;;;;;1.93;1.37;;;;;;;;;;5007820;28;20798;-77
2022/02/16 07:08:47;;;;;;;1.60;1.10;;;;;;;;;;5013757;28;20774;-76
2022/02/16 07:11:13;;;;;;;1.90;1.23;;;;;;;;;;5013171;28;20427;-76
2022/02/16 07:13:39;;;;;;;2.90;1.53;;;;;;;;;;5011542;28;20760;-76
2022/02/16 07:16:05;;;;;;;4.73;1.50;;;;;;;;;;5008854;28;20470;-76
2022/02/16 07:18:33;;;;;;;2.40;1.67;;;;;;;;;;5013272;28;20801;-77
2022/02/16 07:21:00;;;;;;;3.47;1.40;;;;;;;;;;5013141;28;20462;-76
2022/02/16 07:23:26;;;;;;;8.33;1.60;;;;;;;;;;5012082;28;20427;-76
2022/02/16 07:25:52;;;;;;;5.97;1.53;;;;;;;;;;5001377;28;20447;-76
2022/02/16 07:28:18;;;;;;;1.87;1.30;;;;;;;;;;5007856;28;20415;-77
2022/02/16 07:30:48;;;;;;;2.40;1.37;;;;;;;;;;5012804;28;20808;-76
2022/02/16 07:33:14;;;;;;;2.53;1.37;;;;;;;;;;5012948;28;20414;-76
2022/02/16 07:35:40;;;;;;;2.00;1.30;;;;;;;;;;5010697;28;20415;-77
2022/02/16 07:38:06;;;;;;;2.27;1.67;;;;;;;;;;5012388;28;20407;-76
2022/02/16 07:40:32;;;;;;;2.10;1.20;;;;;;;;;;5012074;28;20509;-77
2022/02/16 07:42:59;;;;;;;8.97;1.30;;;;;;;;;;5002509;28;20432;-77
2022/02/16 07:45:25;;;;;;;6.93;1.30;;;;;;;;;;5013204;28;20498;-76
2022/02/16 07:47:51;;;;;;;4.83;1.80;;;;;;;;;;5013075;28;20462;-76
2022/02/16 07:50:17;;;;;;;2.10;1.30;;;;;;;;;;5009619;28;20451;-77
2022/02/16 07:52:43;;;;;;;2.23;1.23;;;;;;;;;;5012361;28;20415;-77
2022/02/16 07:55:09;;;;;;;4.30;1.60;;;;;;;;;;5013297;28;20431;-76
2022/02/16 07:57:35;;;;;;;3.27;1.70;;;;;;;;;;5012776;28;20423;-77
2022/02/16 08:00:01;;;;;;;6.50;1.40;;;;;;;;;;5011581;28;20462;-76
2022/02/16 08:02:27;;;;;;;2.03;1.40;;;;;;;;;;5010798;28;20426;-77
2022/02/16 08:04:53;;;;;;;2.20;1.23;;;;;;;;;;5010924;28;20454;-77
2022/02/16 08:07:20;;;;;;;1.87;1.23;;;;;;;;;;5010471;28;20176;-76
2022/02/16 08:09:46;;;;;;;3.40;1.23;;;;;;;;;;5007367;28;20874;-74
2022/02/16 08:12:12;;;;;;;3.83;1.47;;;;;;;;;;5011203;28;20497;-75
2022/02/16 08:14:39;;;;;;;3.07;1.43;;;;;;;;;;5009065;28;20903;-77
2022/02/16 08:17:05;;;;;;;2.57;1.30;;;;;;;;;;5011225;28;20431;-76
2022/02/16 08:19:31;;;;;;;2.33;1.27;;;;;;;;;;5015812;28;20462;-76
2022/02/16 08:21:58;;;;;;;7.47;1.60;;;;;;;;;;5014196;28;20423;-75
2022/02/16 08:24:28;;;;;;;3.90;1.20;;;;;;;;;;5015454;28;20439;-76
2022/02/16 08:26:54;;;;;;;2.00;1.27;;;;;;;;;;5012440;28;20422;-76
2022/02/16 08:29:22;;;;;;;2.70;1.33;;;;;;;;;;5014189;28;20465;-76
2022/02/16 08:31:48;;;;;;;4.70;1.40;;;;;;;;;;5013181;28;20466;-76
2022/02/16 08:34:14;;;;;;;3.30;1.60;;;;;;;;;;5012058;28;21065;-76
2022/02/16 08:36:41;;;;;;;3.17;1.50;;;;;;;;;;5014166;28;20419;-75
2022/02/16 08:39:07;;;;;;;2.70;1.20;;;;;;;;;;5011182;28;20886;-76
2022/02/16 08:41:33;;;;;;;3.20;1.10;;;;;;;;;;5012717;28;20199;-77
2022/02/16 08:43:59;;;;;;;1.70;0.90;;;;;;;;;;5011990;28;20418;-77
2022/02/16 08:46:25;;;;;;;7.70;1.80;;;;;;;;;;5014063;28;20179;-77
2022/02/16 08:48:51;;;;;;;3.70;1.40;;;;;;;;;;5014018;28;20494;-76
2022/02/16 08:51:17;;;;;;;2.90;1.23;;;;;;;;;;5014299;28;20862;-76
2022/02/16 08:53:43;;;;;;;2.90;1.40;;;;;;;;;;5015020;28;20485;-75
2022/02/16 08:56:10;;;;;;;2.70;1.57;;;;;;;;;;5013109;28;20480;-78
2022/02/16 08:58:36;;;;;;;3.63;1.53;;;;;;;;;;5009956;28;20899;-76
2022/02/16 09:01:02;;;;;;;3.40;1.90;;;;;;;;;;5012979;28;20407;-77
2022/02/16 09:03:29;;;;;;;8.20;1.70;;;;;;;;;;5013380;28;20821;-76
2022/02/16 09:05:55;;;;;;;2.53;1.47;;;;;;;;;;5014082;28;20573;-77
2022/02/16 09:08:21;;;;;;;2.70;1.60;;;;;;;;;;5013894;28;20510;-76
2022/02/16 09:10:48;;;;;;;2.30;1.70;;;;;;;;;;5014468;28;20989;-76
2022/02/16 09:13:14;;;;;;;3.70;1.70;;;;;;;;;;5012414;28;20404;-76
2022/02/16 09:15:40;;;;;;;7.63;1.50;;;;;;;;;;5012852;28;20415;-77
2022/02/16 09:18:06;;;;;;;7.53;2.30;;;;;;;;;;5012017;28;20435;-77
2022/02/16 09:20:33;;;;;;;2.23;1.47;;;;;;;;;;5013400;28;20497;-76
2022/02/16 09:23:00;;;;;;;3.70;2.00;;;;;;;;;;5010609;28;20465;-76
2022/02/16 09:25:26;;;;;;;2.33;1.40;;;;;;;;;;5013440;28;20477;-76
2022/02/16 09:27:52;;;;;;;2.10;1.23;;;;;;;;;;5012681;28;20989;-77
2022/02/16 09:30:20;;;;;;;5.00;1.77;;;;;;;;;;5009476;28;20438;-76
2022/02/16 09:32:46;;;;;;;2.87;1.80;;;;;;;;;;5011426;28;20419;-76
2022/02/16 09:35:13;;;;;;;2.83;1.60;;;;;;;;;;5013424;28;20502;-77
2022/02/16 09:37:39;;;;;;;2.00;1.30;;;;;;;;;;5013864;28;20427;-76
2022/02/16 09:40:05;;;;;;;6.37;2.23;;;;;;;;;;5012770;28;20443;-76
2022/02/16 09:42:34;;;;;;;8.13;2.13;;;;;;;;;;5013307;28;20427;-76
2022/02/16 09:45:02;;;;;;;3.77;1.70;;;;;;;;;;5010088;28;20975;-76
2022/02/16 09:47:30;;;;;;;2.10;1.50;;;;;;;;;;5008807;28;20439;-76
2022/02/16 09:49:56;;;;;;;3.60;1.57;;;;;;;;;;5011674;28;20484;-77
2022/02/16 09:52:23;;;;;;;2.90;1.53;;;;;;;;;;5010786;28;20428;-77
2022/02/16 09:54:49;;;;;;;3.60;2.10;;;;;;;;;;5012148;28;20428;-77
2022/02/16 09:57:16;;;;;;;2.73;1.70;;;;;;;;;;5008063;28;20526;-77
2022/02/16 09:59:42;;;;;;;3.53;1.80;;;;;;;;;;5011838;28;20442;-75
2022/02/16 10:02:10;;;;;;;5.00;1.50;;;;;;;;;;5007415;28;20420;-76
2022/02/16 10:04:37;;;;;;;3.00;1.70;;;;;;;;;;5007142;28;20453;-75
2022/02/16 10:07:23;;;;;;;3.30;1.73;;;;;;;;;;5004512;28;20416;-77
2022/02/16 10:09:49;;;;;;;3.37;1.93;;;;;;;;;;5009843;28;20435;-76
2022/02/16 10:12:15;;;;;;;2.50;1.97;;;;;;;;;;5011782;28;20418;-76
2022/02/16 10:14:41;;;;;;;8.67;2.03;;;;;;;;;;5013425;28;20415;-76
2022/02/16 10:17:18;;;;;;;3.70;1.80;;;;;;;;;;5012484;28;20481;-76
2022/02/16 10:19:50;;;;;;;5.63;2.00;;;;;;;;;;5011187;28;20529;-76
2022/02/16 10:22:16;;;;;;;8.30;2.40;;;;;;;;;;5003359;28;20531;-77
2022/02/16 10:24:45;;;;;;;5.00;1.90;;;;;;;;;;5011345;28;20455;-77
2022/02/16 10:27:12;;;;;;;2.80;1.80;;;;;;;;;;5011840;28;20989;-76
2022/02/16 10:29:38;;;;;;;3.07;1.63;;;;;;;;;;5010543;28;20977;-77
2022/02/16 10:32:05;;;;;;;2.20;1.40;;;;;;;;;;5012807;28;20470;-77
2022/02/16 10:34:50;;;;;;;2.80;1.80;;;;;;;;;;5011802;28;20439;-76
2022/02/16 10:37:17;;;;;;;2.40;1.40;;;;;;;;;;5006495;28;20415;-76
2022/02/16 10:39:58;;;;;;;3.80;1.83;;;;;;;;;;5012147;28;20489;-77
2022/02/16 10:42:24;;;;;;;8.90;1.90;;;;;;;;;;5009658;28;20400;-77
2022/02/16 10:45:03;;;;;;;2.63;1.30;;;;;;;;;;5011781;28;20447;-75
2022/02/16 10:47:29;;;;;;;2.97;1.50;;;;;;;;;;5011536;28;20805;-77
2022/02/16 10:49:59;;;;;;;3.13;1.70;;;;;;;;;;5013170;28;20971;-77
2022/02/16 10:52:25;;;;;;;1.97;1.30;;;;;;;;;;5011728;28;20426;-77
2022/02/16 10:54:59;;;;;;;2.27;1.47;;;;;;;;;;5003046;28;20434;-77
2022/02/16 10:57:25;;;;;;;5.70;1.60;;;;;;;;;;5011277;28;20488;-77
2022/02/16 10:59:52;;;;;;;2.13;1.20;;;;;;;;;;5012245;28;20437;-78
2022/02/16 11:02:18;;;;;;;2.23;1.23;;;;;;;;;;5007020;28;20447;-77
2022/02/16 11:04:46;;;;;;;2.53;1.70;;;;;;;;;;5010710;28;21015;-77
2022/02/16 11:07:13;;;;;;;1.80;1.00;;;;;;;;;;5011384;28;20509;-78
2022/02/16 11:09:43;;;;;;;2.37;1.33;;;;;;;;;;5011648;28;20433;-78
2022/02/16 11:12:09;;;;;;;2.83;1.30;;;;;;;;;;5007049;28;20765;-76
2022/02/16 11:14:36;;;;;;;9.97;1.67;;;;;;;;;;5002569;28;20782;-76
2022/02/16 11:17:03;;;;;;;3.57;2.13;;;;;;;;;;5011367;28;20510;-77
2022/02/16 11:19:35;;;;;;;1.53;0.90;;;;;;;;;;5013469;28;20431;-76
2022/02/16 11:22:01;;;;;;;1.93;1.20;;;;;;;;;;5008070;28;20954;-76
2022/02/16 11:24:46;;;;;;;2.20;1.10;;;;;;;;;;5012479;28;20501;-77
2022/02/16 11:27:21;;;;;;;1.83;1.07;;;;;;;;;;5009732;28;20436;-76
2022/02/16 11:29:48;;;;;;;2.53;1.30;;;;;;;;;;5009384;28;20869;-76
2022/02/16 11:32:21;;;;;;;1.73;0.87;;;;;;;;;;5011710;28;20946;-77
2022/02/16 11:35:07;;;;;;;2.53;1.13;;;;;;;;;;5011406;28;20423;-76
2022/02/16 11:37:38;;;;;;;1.60;1.17;;;;;;;;;;5008088;28;20421;-76
2022/02/16 11:40:05;;;;;;;1.53;1.00;;;;;;;;;;5009809;28;20843;-77
2022/02/16 11:42:46;;;;;;;4.83;1.33;;;;;;;;;;5011233;28;20477;-77
2022/02/16 11:45:12;;;;;;;1.63;0.90;;;;;;;;;;5008536;28;20455;-76
2022/02/16 11:47:41;;;;;;;2.07;1.20;;;;;;;;;;5010986;28;20426;-77
2022/02/16 11:50:10;;;;;;;2.20;1.20;;;;;;;;;;5009432;28;20453;-77
2022/02/16 11:52:37;;;;;;;1.53;1.20;;;;;;;;;;5012366;28;20411;-76
2022/02/16 11:55:04;;;;;;;2.50;1.30;;;;;;;;;;5015049;28;20455;-76
2022/02/16 11:57:39;;;;;;;1.90;1.10;;;;;;;;;;5015740;28;20946;-77
2022/02/16 12:00:09;;;;;;;2.80;1.30;;;;;;;;;;5015454;28;20442;-78
2022/02/16 12:02:54;;;;;;;1.30;0.83;;;;;;;;;;5011555;28;20434;-77
2022/02/16 12:05:40;;;;;;;1.80;1.10;;;;;;;;;;5014413;28;20532;-77
2022/02/16 12:08:17;;;;;;;2.00;1.00;;;;;;;;;;5016359;28;20464;-76
2022/02/16 12:10:44;;;;;;;1.80;1.00;;;;;;;;;;5017163;28;20816;-76
2022/02/16 12:13:10;;;;;;;1.90;1.10;;;;;;;;;;5015701;28;20418;-76
2022/02/16 12:15:37;;;;;;;1.50;0.90;;;;;;;;;;5015182;28;20923;-76
2022/02/16 12:18:04;;;;;;;1.80;0.90;;;;;;;;;;5012743;28;20856;-76
2022/02/16 12:20:30;;;;;;;1.40;0.90;;;;;;;;;;5013175;28;20462;-76
2022/02/16 12:23:03;;;;;;;1.60;0.90;;;;;;;;;;5012342;28;20426;-76
2022/02/16 12:25:30;;;;;;;1.50;0.83;;;;;;;;;;5011297;28;20454;-76
2022/02/16 12:28:00;;;;;;;1.63;0.90;;;;;;;;;;5012741;28;20431;-76
2022/02/16 12:30:33;;;;;;;1.40;1.10;;;;;;;;;;5013473;28;20442;-76
2022/02/16 12:32:59;;;;;;;1.60;0.90;;;;;;;;;;5013271;28;20754;-76
2022/02/16 12:35:25;;;;;;;2.70;1.40;;;;;;;;;;5014155;28;20423;-76
2022/02/16 12:37:53;;;;;;;1.87;0.90;;;;;;;;;;5013150;28;20510;-76
2022/02/16 12:40:22;;;;;;;1.83;1.10;;;;;;;;;;5012408;28;20544;-76
2022/02/16 12:42:49;;;;;;;1.77;0.90;;;;;;;;;;5012403;28;20443;-76
2022/02/16 12:45:24;;;;;;;1.60;0.90;;;;;;;;;;5012495;28;20534;-76
2022/02/16 12:47:52;;;;;;;4.00;0.90;;;;;;;;;;5014917;28;20178;-76
2022/02/16 12:50:21;;;;;;;1.40;0.90;;;;;;;;;;5013654;28;20457;-76
2022/02/16 12:52:47;;;;;;;2.90;1.00;;;;;;;;;;5013502;28;20446;-76
2022/02/16 12:55:13;;;;;;;1.30;0.80;;;;;;;;;;5009392;28;20412;-75
2022/02/16 12:57:40;;;;;;;1.90;1.10;;;;;;;;;;5012320;28;20506;-77
2022/02/16 13:03:00;;;;;;;1.43;0.87;;;;;;;;;;5010498;28;20543;-76
2022/02/16 13:05:34;;;;;;;1.60;0.90;;;;;;;;;;5012920;28;20465;-76
2022/02/16 13:08:00;;;;;;;3.67;0.93;;;;;;;;;;5013623;28;20419;-76
2022/02/16 13:10:28;;;;;;;1.73;1.03;;;;;;;;;;5011459;28;20477;-75
2022/02/16 13:12:55;;;;;;;1.60;0.90;;;;;;;;;;5013852;28;20418;-75
2022/02/16 13:15:22;;;;;;;3.10;1.20;;;;;;;;;;5014963;28;20422;-76
2022/02/16 13:17:53;;;;;;;1.30;0.80;;;;;;;;;;5014849;28;20411;-76
2022/02/16 13:20:26;;;;;;;1.60;0.87;;;;;;;;;;5011823;28;20434;-76
2022/02/16 13:22:54;;;;;;;1.40;0.97;;;;;;;;;;5013160;28;20419;-75
2022/02/16 13:25:24;;;;;;;3.67;1.53;;;;;;;;;;5013723;28;20462;-75
2022/02/16 13:27:50;;;;;;;2.27;1.17;;;;;;;;;;5011415;28;20491;-74
2022/02/16 13:30:21;;;;;;;1.30;0.90;;;;;;;;;;5011632;28;20947;-75
2022/02/16 13:32:49;;;;;;;1.40;0.90;;;;;;;;;;5012564;28;20419;-75
2022/02/16 13:35:15;;;;;;;1.80;1.10;;;;;;;;;;5014320;28;20480;-74
2022/02/16 13:37:59;;;;;;;2.23;1.07;;;;;;;;;;5014108;28;20417;-75
2022/02/16 13:40:27;;;;;;;2.60;1.00;;;;;;;;;;5014153;28;20435;-75
2022/02/16 13:43:03;;;;;;;1.70;0.90;;;;;;;;;;5010945;28;20483;-75
2022/02/16 13:45:37;;;;;;;1.97;1.10;;;;;;;;;;5008999;28;20443;-75
2022/02/16 13:48:04;;;;;;;1.67;1.00;;;;;;;;;;4999644;28;20467;-74
2022/02/16 13:50:32;;;;;;;2.63;1.23;;;;;;;;;;5008330;28;20838;-75
2022/02/16 13:52:58;;;;;;;1.70;0.90;;;;;;;;;;5011453;28;20936;-75
2022/02/16 13:55:25;;;;;;;1.60;1.07;;;;;;;;;;5013578;28;20411;-75
2022/02/16 13:57:51;;;;;;;2.43;1.30;;;;;;;;;;5012546;28;20427;-75
2022/02/16 14:00:22;;;;;;;2.90;1.10;;;;;;;;;;5013923;28;20811;-75
2022/02/16 14:03:04;;;;;;;3.10;1.17;;;;;;;;;;5013910;28;20415;-75
2022/02/16 14:05:30;;;;;;;1.50;0.97;;;;;;;;;;5012379;28;20540;-75
2022/02/16 14:07:56;;;;;;;2.83;0.93;;;;;;;;;;5012376;28;20419;-76
2022/02/16 14:10:22;;;;;;;1.73;0.90;;;;;;;;;;5012178;28;20962;-76
2022/02/16 14:12:49;;;;;;;1.70;1.10;;;;;;;;;;5012556;28;20442;-76
2022/02/16 14:15:15;;;;;;;1.93;1.17;;;;;;;;;;5009872;28;20419;-76
2022/02/16 14:17:42;;;;;;;1.97;1.30;;;;;;;;;;5012300;28;20419;-76
2022/02/16 14:20:09;;;;;;;1.50;0.87;;;;;;;;;;5012152;28;20481;-75
2022/02/16 14:22:35;;;;;;;1.47;0.80;;;;;;;;;;5008363;28;20431;-77
2022/02/16 14:25:01;;;;;;;1.70;0.97;;;;;;;;;;5011636;28;20976;-76
2022/02/16 14:27:27;;;;;;;1.70;1.10;;;;;;;;;;5009723;28;20455;-75
2022/02/16 14:29:53;;;;;;;1.67;1.20;;;;;;;;;;5012294;28;20476;-76
2022/02/16 14:32:20;;;;;;;1.50;0.80;;;;;;;;;;5011973;28;20415;-76
2022/02/16 14:34:46;;;;;;;1.70;0.80;;;;;;;;;;5011737;28;21023;-76
2022/02/16 14:37:13;;;;;;;1.43;0.90;;;;;;;;;;5007220;28;20412;-75
2022/02/16 14:39:40;;;;;;;1.50;0.73;;;;;;;;;;5010148;28;20446;-76
2022/02/16 14:42:06;;;;;;;1.80;1.30;;;;;;;;;;5010375;28;20510;-76
2022/02/16 14:44:32;;;;;;;1.83;0.97;;;;;;;;;;5010962;28;20463;-76
2022/02/16 14:46:59;;;;;;;1.60;0.93;;;;;;;;;;5012557;28;20506;-76
2022/02/16 14:49:28;;;;;;;1.70;0.97;;;;;;;;;;5007543;28;21001;-75